createdAt,value
2022-11-29T00:01:02.189Z,0.43
2022-11-29T00:03:29.631Z,0.42
2022-11-29T00:05:56.751Z,0.42
2022-11-29T00:08:24.340Z,0.51
2022-11-29T00:10:50.899Z,0.42
2022-11-29T00:13:17.894Z,0.49
2022-11-29T00:15:44.371Z,0.45
2022-11-29T00:18:10.954Z,0.42
2022-11-29T00:20:39.462Z,0.40
2022-11-29T00:23:06.180Z,0.42
2022-11-29T00:25:32.727Z,0.44
2022-11-29T00:27:59.725Z,0.47
2022-11-29T00:30:26.210Z,0.48
2022-11-29T00:32:52.800Z,0.51
2022-11-29T00:35:19.271Z,0.52
2022-11-29T00:37:45.734Z,0.47
2022-11-29T00:40:12.715Z,0.44
2022-11-29T00:42:39.202Z,0.46
2022-11-29T00:45:06.146Z,0.40
2022-11-29T00:47:32.800Z,0.43
2022-11-29T00:49:59.457Z,0.41
2022-11-29T00:52:25.976Z,0.43
2022-11-29T00:54:53.693Z,0.50
2022-11-29T00:57:21.280Z,0.55
2022-11-29T00:59:47.739Z,0.43
2022-11-29T01:02:14.387Z,0.44
2022-11-29T01:04:41.087Z,0.48
2022-11-29T01:07:07.669Z,0.50
2022-11-29T01:09:34.181Z,0.49
2022-11-29T01:12:00.712Z,0.52
2022-11-29T01:14:27.197Z,0.54
2022-11-29T01:16:53.722Z,0.46
2022-11-29T01:19:20.207Z,0.47
2022-11-29T01:21:47.322Z,0.38
2022-11-29T01:24:13.814Z,0.45
2022-11-29T01:26:40.983Z,0.42
2022-11-29T01:29:11.895Z,0.47
2022-11-29T01:31:38.723Z,0.42
2022-11-29T01:34:07.291Z,0.43
2022-11-29T01:36:34.551Z,0.38
2022-11-29T01:39:02.681Z,0.38
2022-11-29T01:41:32.459Z,0.38
2022-11-29T01:44:06.119Z,0.40
2022-11-29T01:46:35.822Z,0.33
2022-11-29T01:49:13.971Z,0.31
2022-11-29T01:51:44.405Z,0.35
2022-11-29T01:54:11.970Z,0.35
2022-11-29T01:56:39.088Z,0.33
2022-11-29T01:59:09.484Z,0.36
2022-11-29T02:01:37.210Z,0.35
2022-11-29T02:04:04.391Z,0.37
2022-11-29T02:06:31.006Z,0.35
2022-11-29T02:08:57.606Z,0.31
2022-11-29T02:11:55.044Z,0.33
2022-11-29T02:15:00.203Z,0.34
2022-11-29T02:17:29.283Z,0.40
2022-11-29T02:20:27.896Z,0.39
2022-11-29T02:23:09.397Z,0.33
2022-11-29T02:25:45.998Z,0.32
2022-11-29T02:28:47.970Z,0.35
2022-11-29T02:31:29.908Z,0.36
2022-11-29T02:34:19.906Z,0.28
2022-11-29T02:37:11.567Z,0.36
2022-11-29T02:40:01.156Z,0.36
2022-11-29T02:42:55.592Z,0.38
2022-11-29T02:45:44.700Z,0.39
2022-11-29T02:48:20.145Z,0.30
2022-11-29T02:50:55.573Z,0.39
2022-11-29T02:53:50.133Z,0.45
2022-11-29T02:56:37.954Z,0.42
2022-11-29T02:59:29.662Z,0.43
2022-11-29T03:02:12.614Z,0.39
2022-11-29T03:05:03.328Z,0.38
2022-11-29T03:07:42.124Z,0.43
2022-11-29T03:10:22.722Z,0.40
2022-11-29T03:12:52.966Z,0.40
2022-11-29T03:15:32.919Z,0.41
2022-11-29T03:18:30.693Z,0.43
2022-11-29T03:21:29.011Z,0.35
2022-11-29T03:23:59.085Z,0.39
2022-11-29T03:26:44.056Z,0.40
2022-11-29T03:29:22.678Z,0.42
2022-11-29T03:32:02.100Z,0.41
2022-11-29T03:34:58.447Z,0.45
2022-11-29T03:37:34.054Z,0.39
2022-11-29T03:40:06.378Z,0.41
2022-11-29T03:42:38.714Z,0.43
2022-11-29T03:45:13.450Z,0.40
2022-11-29T03:47:52.693Z,0.43
2022-11-29T03:50:26.171Z,0.39
2022-11-29T03:53:12.675Z,0.40
2022-11-29T03:55:57.062Z,0.38
2022-11-29T03:58:41.815Z,0.43
2022-11-29T04:01:37.868Z,0.42
2022-11-29T04:04:29.934Z,0.35
2022-11-29T04:07:24.129Z,0.36
2022-11-29T04:10:14.248Z,0.38
2022-11-29T04:13:05.610Z,0.33
2022-11-29T04:15:49.346Z,0.32
2022-11-29T04:18:48.167Z,0.31
2022-11-29T04:21:33.979Z,0.37
2022-11-29T04:24:25.540Z,0.39
2022-11-29T04:27:20.368Z,0.32
2022-11-29T04:30:06.383Z,0.32
2022-11-29T04:33:03.650Z,0.26
2022-11-29T04:35:35.670Z,0.26
2022-11-29T04:38:27.207Z,0.26
2022-11-29T04:41:31.172Z,0.31
2022-11-29T04:44:20.219Z,0.28
2022-11-29T04:47:05.538Z,0.22
2022-11-29T04:49:53.946Z,0.26
2022-11-29T04:52:47.763Z,0.19
2022-11-29T04:56:03.460Z,0.23
2022-11-29T04:58:39.710Z,0.16
2022-11-29T05:01:25.917Z,0.30
2022-11-29T05:04:21.008Z,0.21
2022-11-29T05:07:26.513Z,0.26
2022-11-29T05:10:20.840Z,0.27
2022-11-29T05:13:25.192Z,0.22
2022-11-29T05:16:20.680Z,0.15
2022-11-29T05:19:17.288Z,0.11
2022-11-29T05:21:55.338Z,0.16
2022-11-29T05:24:59.347Z,0.20
2022-11-29T05:27:44.896Z,0.25
2022-11-29T05:30:20.404Z,0.17
2022-11-29T05:33:04.821Z,0.20
2022-11-29T05:35:51.867Z,0.24
2022-11-29T05:38:27.465Z,0.19
2022-11-29T05:41:20.244Z,0.19
2022-11-29T05:43:56.936Z,0.19
2022-11-29T05:47:01.067Z,0.27
2022-11-29T05:49:37.281Z,0.24
2022-11-29T05:52:11.971Z,0.25
2022-11-29T05:54:49.947Z,0.28
2022-11-29T05:57:41.689Z,0.24
2022-11-29T06:00:12.926Z,0.22
2022-11-29T06:03:04.464Z,0.27
2022-11-29T06:05:55.153Z,0.30
2022-11-29T06:08:34.178Z,0.27
2022-11-29T06:11:06.672Z,0.32
2022-11-29T06:13:38.874Z,0.33
2022-11-29T06:16:42.613Z,0.32
2022-11-29T06:19:29.865Z,0.36
2022-11-29T06:22:26.688Z,0.25
2022-11-29T06:24:56.787Z,0.31
2022-11-29T06:27:50.389Z,0.29
2022-11-29T06:30:20.979Z,0.36
2022-11-29T06:33:08.519Z,0.33
2022-11-29T06:35:47.936Z,0.29
2022-11-29T06:38:27.628Z,0.32
2022-11-29T06:41:00.220Z,0.29
2022-11-29T06:43:29.108Z,0.29
2022-11-29T06:46:10.589Z,0.29
2022-11-29T06:49:23.379Z,0.39
2022-11-29T06:52:08.338Z,0.49
2022-11-29T06:54:50.219Z,0.38
2022-11-29T06:57:25.663Z,0.36
2022-11-29T07:00:11.930Z,0.31
2022-11-29T07:02:52.146Z,0.35
2022-11-29T07:05:25.945Z,0.37
2022-11-29T07:07:56.116Z,0.42
2022-11-29T07:10:23.834Z,0.37
2022-11-29T07:12:51.670Z,0.38
2022-11-29T07:15:21.722Z,0.39
2022-11-29T07:18:31.068Z,0.39
2022-11-29T07:21:32.670Z,0.43
2022-11-29T07:24:16.602Z,0.41
2022-11-29T07:27:01.767Z,0.44
2022-11-29T07:30:10.954Z,0.41
2022-11-29T07:33:00.610Z,0.52
2022-11-29T07:35:49.285Z,0.44
2022-11-29T07:38:22.145Z,0.44
2022-11-29T07:41:01.854Z,0.50
2022-11-29T07:43:53.304Z,0.42
2022-11-29T07:46:19.927Z,0.39
2022-11-29T07:48:46.525Z,0.43
2022-11-29T07:51:14.759Z,0.42
2022-11-29T07:53:43.902Z,0.33
2022-11-29T07:56:12.476Z,0.36
2022-11-29T07:58:39.449Z,0.46
2022-11-29T08:01:06.192Z,0.44
2022-11-29T08:03:33.914Z,0.39
2022-11-29T08:06:00.390Z,0.51
2022-11-29T08:08:26.866Z,0.48
2022-11-29T08:10:53.511Z,0.47
2022-11-29T08:13:21.342Z,0.68
2022-11-29T08:15:48.689Z,0.48
2022-11-29T08:18:16.103Z,0.54
2022-11-29T08:20:43.209Z,0.54
2022-11-29T08:23:12.889Z,0.54
2022-11-29T08:25:39.828Z,0.60
2022-11-29T08:28:06.790Z,0.57
2022-11-29T08:30:33.430Z,0.54
2022-11-29T08:32:59.943Z,0.47
2022-11-29T08:35:26.463Z,0.59
2022-11-29T08:37:54.029Z,0.58
2022-11-29T08:40:20.535Z,0.70
2022-11-29T08:42:47.022Z,0.65
2022-11-29T08:45:13.791Z,0.62
2022-11-29T08:47:42.252Z,0.57
2022-11-29T08:50:14.524Z,0.61
2022-11-29T08:53:02.765Z,0.59
2022-11-29T08:55:33.611Z,0.61
2022-11-29T08:58:03.224Z,0.59
2022-11-29T09:00:31.075Z,0.66
2022-11-29T09:03:17.778Z,0.68
2022-11-29T09:05:46.000Z,1.10
2022-11-29T09:08:12.988Z,0.81
2022-11-29T09:10:40.800Z,0.83
2022-11-29T09:13:08.838Z,0.82
2022-11-29T09:15:37.591Z,0.77
2022-11-29T09:18:05.717Z,0.81
2022-11-29T09:20:34.018Z,0.84
2022-11-29T09:23:00.741Z,0.83
2022-11-29T09:25:28.021Z,0.87
2022-11-29T09:27:57.327Z,0.85
2022-11-29T09:30:24.034Z,0.92
2022-11-29T09:32:50.625Z,0.89
2022-11-29T09:35:17.613Z,0.88
2022-11-29T09:37:44.251Z,0.79
2022-11-29T09:40:21.283Z,0.83
2022-11-29T09:42:58.190Z,0.81
2022-11-29T09:45:32.260Z,0.85
2022-11-29T09:48:07.075Z,0.88
2022-11-29T09:50:34.140Z,0.93
2022-11-29T09:53:33.101Z,0.97
2022-11-29T09:56:12.355Z,1.02
2022-11-29T09:59:09.809Z,1.01
2022-11-29T10:01:43.420Z,1.08
2022-11-29T10:04:15.651Z,1.23
2022-11-29T10:06:50.538Z,3.01
2022-11-29T10:09:27.397Z,3.44
2022-11-29T10:12:17.572Z,2.46
2022-11-29T10:15:02.747Z,1.38
2022-11-29T10:17:38.687Z,1.31
2022-11-29T10:20:17.977Z,1.79
2022-11-29T10:23:15.097Z,1.43
2022-11-29T10:25:50.766Z,1.41
2022-11-29T10:28:22.417Z,1.82
2022-11-29T10:30:49.344Z,1.38
2022-11-29T10:33:27.078Z,1.27
2022-11-29T10:35:59.698Z,1.24
2022-11-29T10:38:31.258Z,1.28
2022-11-29T10:41:06.504Z,1.10
2022-11-29T10:43:33.266Z,1.24
2022-11-29T10:46:02.476Z,1.32
2022-11-29T10:48:33.630Z,1.23
2022-11-29T10:51:01.384Z,1.26
2022-11-29T10:53:35.973Z,1.24
2022-11-29T10:56:09.178Z,1.18
2022-11-29T10:58:36.516Z,1.17
2022-11-29T11:01:08.470Z,1.19
2022-11-29T11:03:37.529Z,1.12
2022-11-29T11:06:26.935Z,1.18
2022-11-29T11:08:56.701Z,1.13
2022-11-29T11:11:31.916Z,1.13
2022-11-29T11:14:05.275Z,1.10
2022-11-29T11:16:37.116Z,1.15
2022-11-29T11:19:22.174Z,1.23
2022-11-29T11:21:48.955Z,1.36
2022-11-29T11:24:24.841Z,1.20
2022-11-29T11:26:51.462Z,1.28
2022-11-29T11:29:22.339Z,1.33
2022-11-29T11:31:56.538Z,1.29
2022-11-29T11:34:34.426Z,1.28
2022-11-29T11:37:20.741Z,1.27
2022-11-29T11:39:50.270Z,1.24
2022-11-29T11:42:39.391Z,1.33
2022-11-29T11:45:34.110Z,1.27
2022-11-29T11:48:10.728Z,1.28
2022-11-29T11:50:54.902Z,1.28
2022-11-29T11:53:27.676Z,1.24
2022-11-29T11:56:05.371Z,1.26
2022-11-29T11:58:38.966Z,1.26
2022-11-29T12:01:16.557Z,1.24
2022-11-29T12:03:59.240Z,1.29
2022-11-29T12:06:39.501Z,1.24
2022-11-29T12:09:19.479Z,1.23
2022-11-29T12:12:16.622Z,1.27
2022-11-29T12:15:03.150Z,1.21
2022-11-29T12:17:35.578Z,1.19
2022-11-29T12:20:11.501Z,1.18
2022-11-29T12:22:48.431Z,1.20
2022-11-29T12:25:22.918Z,1.24
2022-11-29T12:27:50.763Z,1.29
2022-11-29T12:30:18.784Z,1.26
2022-11-29T12:33:04.532Z,1.19
2022-11-29T12:35:46.761Z,1.18
2022-11-29T12:38:19.051Z,1.18
2022-11-29T12:41:12.904Z,1.15
2022-11-29T12:43:52.549Z,1.30
2022-11-29T12:46:28.758Z,1.22
2022-11-29T12:49:20.032Z,1.15
2022-11-29T12:51:53.539Z,1.17
2022-11-29T12:54:38.853Z,1.21
2022-11-29T12:57:37.398Z,1.17
2022-11-29T13:00:15.610Z,1.13
2022-11-29T13:03:15.708Z,1.06
2022-11-29T13:06:19.217Z,1.03
2022-11-29T13:09:18.635Z,1.10
2022-11-29T13:11:55.780Z,1.06
2022-11-29T13:15:16.654Z,1.06
2022-11-29T13:18:00.789Z,1.10
2022-11-29T13:20:30.087Z,1.08
2022-11-29T13:23:13.569Z,1.05
2022-11-29T13:25:43.338Z,1.08
2022-11-29T13:28:31.935Z,1.08
2022-11-29T13:31:05.293Z,1.06
2022-11-29T13:34:03.873Z,1.08
2022-11-29T13:36:49.258Z,1.01
2022-11-29T13:39:51.226Z,1.06
2022-11-29T13:42:54.690Z,1.03
2022-11-29T13:45:30.994Z,1.06
2022-11-29T13:48:01.928Z,0.97
2022-11-29T13:50:44.639Z,0.96
2022-11-29T13:53:25.855Z,1.05
2022-11-29T13:56:02.275Z,1.08
2022-11-29T13:58:28.857Z,1.15
2022-11-29T14:01:05.592Z,1.15
2022-11-29T14:03:36.914Z,1.01
2022-11-29T14:06:38.302Z,0.95
2022-11-29T14:09:19.104Z,0.94
2022-11-29T14:11:49.220Z,1.00
2022-11-29T14:14:15.861Z,0.95
2022-11-29T14:16:42.317Z,1.00
2022-11-29T14:19:09.048Z,0.92
2022-11-29T14:22:05.563Z,0.91
2022-11-29T14:24:31.993Z,0.90
2022-11-29T14:27:21.071Z,0.97
2022-11-29T14:29:47.482Z,0.95
2022-11-29T14:32:46.406Z,0.93
2022-11-29T14:35:13.197Z,0.97
2022-11-29T14:38:13.844Z,0.88
2022-11-29T14:40:40.270Z,0.84
2022-11-29T14:43:28.164Z,0.84
2022-11-29T14:46:16.348Z,0.88
2022-11-29T14:48:57.399Z,0.84
2022-11-29T14:51:27.566Z,0.85
2022-11-29T14:54:20.034Z,0.94
2022-11-29T14:56:47.519Z,0.81
2022-11-29T15:00:03.011Z,0.81
2022-11-29T15:02:34.285Z,0.86
2022-11-29T15:05:14.442Z,0.80
2022-11-29T15:07:50.100Z,0.82
2022-11-29T15:10:22.880Z,0.73
2022-11-29T15:12:52.078Z,0.68
2022-11-29T15:15:32.660Z,0.75
2022-11-29T15:18:22.434Z,0.85
2022-11-29T15:21:01.222Z,0.89
2022-11-29T15:23:27.822Z,0.79
2022-11-29T15:25:59.938Z,0.71
2022-11-29T15:28:29.307Z,0.88
2022-11-29T15:31:06.693Z,0.77
2022-11-29T15:33:36.142Z,0.85
2022-11-29T15:36:12.475Z,0.83
2022-11-29T15:38:53.313Z,0.81
2022-11-29T15:41:21.486Z,0.74
2022-11-29T15:43:53.821Z,0.75
2022-11-29T15:46:24.099Z,0.78
2022-11-29T15:48:50.705Z,0.73
2022-11-29T15:51:37.602Z,0.75
2022-11-29T15:54:13.242Z,0.70
2022-11-29T15:56:56.594Z,0.75
2022-11-29T15:59:57.683Z,0.80
2022-11-29T16:02:33.567Z,0.88
2022-11-29T16:05:08.459Z,0.83
2022-11-29T16:07:35.254Z,0.79
2022-11-29T16:10:10.566Z,0.77
2022-11-29T16:12:51.945Z,0.74
2022-11-29T16:15:26.826Z,0.82
2022-11-29T16:17:54.587Z,0.81
2022-11-29T16:20:24.397Z,0.82
2022-11-29T16:23:14.418Z,0.87
2022-11-29T16:25:55.645Z,0.78
2022-11-29T16:28:31.060Z,0.75
2022-11-29T16:30:57.849Z,0.84
2022-11-29T16:33:24.820Z,0.84
2022-11-29T16:36:02.358Z,0.88
2022-11-29T16:38:29.062Z,0.94
2022-11-29T16:41:22.282Z,0.93
2022-11-29T16:43:56.140Z,0.95
2022-11-29T16:46:22.661Z,0.95
2022-11-29T16:48:50.435Z,0.95
2022-11-29T16:51:26.523Z,0.92
2022-11-29T16:53:54.447Z,0.82
2022-11-29T16:56:23.689Z,0.87
2022-11-29T16:59:21.040Z,0.89
2022-11-29T17:01:42.969Z,0.90
2022-11-29T17:04:10.014Z,0.97
2022-11-29T17:06:37.065Z,0.93
2022-11-29T17:09:04.328Z,0.94
2022-11-29T17:11:30.911Z,0.92
2022-11-29T17:13:57.631Z,0.95
2022-11-29T17:16:24.886Z,0.96
2022-11-29T17:18:52.993Z,1.01
2022-11-29T17:21:21.652Z,1.07
2022-11-29T17:23:48.502Z,1.00
2022-11-29T17:26:15.575Z,1.04
2022-11-29T17:28:43.503Z,0.97
2022-11-29T17:31:16.090Z,1.02
2022-11-29T17:33:42.938Z,0.99
2022-11-29T17:36:11.720Z,1.00
2022-11-29T17:38:38.575Z,1.04
2022-11-29T17:41:13.919Z,1.01
2022-11-29T17:43:40.550Z,0.98
2022-11-29T17:46:13.380Z,1.03
2022-11-29T17:48:40.104Z,0.99
2022-11-29T17:51:22.867Z,1.04
2022-11-29T17:53:56.374Z,1.05
2022-11-29T17:56:29.127Z,1.01
2022-11-29T17:59:00.348Z,1.03
2022-11-29T18:01:32.357Z,1.03
2022-11-29T18:04:01.465Z,0.88
2022-11-29T18:06:30.782Z,0.96
2022-11-29T18:08:59.186Z,0.95
2022-11-29T18:11:29.525Z,0.90
2022-11-29T18:13:58.298Z,1.01
2022-11-29T18:16:33.391Z,1.01
2022-11-29T18:19:02.043Z,0.94
2022-11-29T18:21:29.016Z,0.94
2022-11-29T18:23:55.516Z,1.03
2022-11-29T18:26:24.657Z,1.09
2022-11-29T18:28:51.719Z,0.99
2022-11-29T18:31:45.001Z,1.02
2022-11-29T18:34:13.601Z,1.00
2022-11-29T18:36:48.563Z,0.89
2022-11-29T18:39:17.680Z,0.95
2022-11-29T18:41:47.838Z,0.93
2022-11-29T18:44:16.212Z,0.94
2022-11-29T18:46:44.073Z,0.96
2022-11-29T18:49:13.068Z,0.99
2022-11-29T18:51:42.321Z,0.99
2022-11-29T18:54:09.051Z,1.00
2022-11-29T18:56:36.641Z,0.97
2022-11-29T18:59:10.448Z,0.99
2022-11-29T19:01:42.739Z,0.96
2022-11-29T19:04:16.079Z,0.97
2022-11-29T19:06:44.772Z,0.95
2022-11-29T19:09:18.060Z,0.92
2022-11-29T19:11:44.614Z,0.92
2022-11-29T19:14:12.828Z,0.94
2022-11-29T19:16:45.060Z,0.94
2022-11-29T19:19:11.926Z,0.87
2022-11-29T19:21:40.023Z,0.88
2022-11-29T19:24:14.179Z,0.93
2022-11-29T19:26:44.370Z,0.94
2022-11-29T19:29:12.126Z,0.96
2022-11-29T19:31:39.512Z,0.94
2022-11-29T19:34:06.683Z,0.91
2022-11-29T19:36:33.171Z,0.93
2022-11-29T19:39:01.770Z,0.96
2022-11-29T19:41:30.651Z,1.02
2022-11-29T19:43:59.313Z,1.10
2022-11-29T19:46:31.841Z,1.08
2022-11-29T19:48:59.542Z,0.98
2022-11-29T19:51:27.258Z,1.00
2022-11-29T19:53:55.892Z,1.03
2022-11-29T19:56:23.204Z,1.05
2022-11-29T19:58:50.585Z,0.96
2022-11-29T20:01:25.258Z,0.90
2022-11-29T20:03:52.815Z,0.95
2022-11-29T20:06:19.676Z,0.86
2022-11-29T20:08:46.288Z,0.87
2022-11-29T20:11:16.637Z,0.90
2022-11-29T20:13:44.974Z,0.88
2022-11-29T20:16:14.666Z,0.86
2022-11-29T20:18:48.943Z,0.84
2022-11-29T20:21:25.612Z,0.90
2022-11-29T20:24:04.821Z,0.85
2022-11-29T20:26:33.475Z,0.80
2022-11-29T20:29:01.775Z,0.85
2022-11-29T20:31:28.631Z,0.82
2022-11-29T20:33:57.558Z,0.87
2022-11-29T20:36:43.743Z,0.77
2022-11-29T20:39:31.887Z,0.77
2022-11-29T20:42:12.738Z,0.81
2022-11-29T20:44:47.760Z,0.77
2022-11-29T20:47:17.393Z,0.88
2022-11-29T20:49:44.390Z,0.84
2022-11-29T20:52:27.415Z,0.84
2022-11-29T20:54:53.901Z,0.85
2022-11-29T20:57:21.580Z,0.89
2022-11-29T20:59:48.233Z,0.79
2022-11-29T21:02:14.953Z,0.79
2022-11-29T21:04:41.471Z,0.85
2022-11-29T21:07:07.998Z,0.80
2022-11-29T21:09:34.502Z,0.76
2022-11-29T21:12:01.185Z,0.81
2022-11-29T21:14:27.880Z,0.97
2022-11-29T21:16:54.663Z,0.95
2022-11-29T21:19:25.365Z,0.95
2022-11-29T21:22:13.920Z,0.90
2022-11-29T21:25:01.017Z,0.92
2022-11-29T21:27:32.243Z,0.93
2022-11-29T21:29:59.323Z,0.93
2022-11-29T21:32:27.219Z,0.91
2022-11-29T21:34:53.757Z,0.96
2022-11-29T21:37:25.051Z,0.97
2022-11-29T21:39:52.695Z,1.00
2022-11-29T21:42:19.641Z,0.87
2022-11-29T21:44:46.863Z,0.84
2022-11-29T21:47:13.919Z,0.90
2022-11-29T21:49:40.638Z,0.89
2022-11-29T21:52:07.260Z,0.86
2022-11-29T21:54:34.081Z,0.92
2022-11-29T21:57:01.779Z,2.26
2022-11-29T21:59:29.076Z,2.57
2022-11-29T22:01:55.620Z,1.46
2022-11-29T22:04:23.147Z,1.05
2022-11-29T22:06:49.742Z,1.00
2022-11-29T22:09:16.271Z,0.97
2022-11-29T22:11:43.039Z,0.83
2022-11-29T22:14:15.814Z,0.85
2022-11-29T22:16:55.606Z,0.81
2022-11-29T22:19:27.705Z,0.77
2022-11-29T22:21:57.360Z,0.71
2022-11-29T22:24:26.817Z,0.67
2022-11-29T22:26:54.158Z,0.72
2022-11-29T22:29:21.203Z,0.60
2022-11-29T22:31:50.604Z,0.55
2022-11-29T22:34:17.135Z,0.49
2022-11-29T22:36:43.622Z,0.55
2022-11-29T22:39:10.170Z,0.54
2022-11-29T22:41:38.919Z,0.57
2022-11-29T22:44:06.248Z,0.62
2022-11-29T22:46:35.486Z,0.60
2022-11-29T22:49:03.175Z,0.62
2022-11-29T22:51:32.542Z,0.57
2022-11-29T22:54:01.723Z,0.64
2022-11-29T22:56:31.289Z,0.61
2022-11-29T22:58:58.360Z,0.58
2022-11-29T23:01:27.329Z,0.59
2022-11-29T23:03:56.555Z,0.63
2022-11-29T23:06:24.603Z,0.56
2022-11-29T23:08:52.715Z,0.59
2022-11-29T23:11:22.797Z,0.59
2022-11-29T23:13:49.351Z,0.74
2022-11-29T23:16:19.858Z,0.61
2022-11-29T23:18:46.833Z,0.61
2022-11-29T23:21:14.578Z,0.57
2022-11-29T23:23:41.592Z,0.53
2022-11-29T23:26:09.615Z,0.51
2022-11-29T23:28:36.390Z,0.52
2022-11-29T23:31:02.923Z,0.58
2022-11-29T23:33:29.482Z,0.51
2022-11-29T23:36:01.033Z,0.55
2022-11-29T23:38:27.654Z,0.58
2022-11-29T23:40:54.264Z,0.59
2022-11-29T23:43:21.832Z,0.60
2022-11-29T23:45:48.517Z,0.52
2022-11-29T23:48:15.418Z,0.53
2022-11-29T23:50:46.049Z,0.53
2022-11-29T23:53:13.993Z,0.52
2022-11-29T23:55:40.660Z,0.54
2022-11-29T23:58:07.270Z,0.53
